Time;durP1;ratioP1;P1;durP2;ratioP2;P2;SDS_P1;SDS_P2;PMS_P1;PMS_P2;Temp;Humidity;BMP_temperature;BMP_pressure;BME280_temperature;BME280_humidity;BME280_pressure;Samples;Min_cycle;Max_cycle;Signal;HPM_P1;HPM_P2
2023/06/18 00:00:13;;;;;;;8.08;6.65;;;;;;;13.94;75.93;99322.91;1677066;84;21057;-63
2023/06/18 00:02:41;;;;;;;6.25;5.65;;;;;;;13.94;75.96;99326.84;1669064;84;21083;-63
2023/06/18 00:05:08;;;;;;;;;;;;;;;13.90;76.00;99317.51;1704531;83;21047;-63
2023/06/18 00:07:35;;;;;;;6.37;5.75;;;;;;;13.88;76.24;99314.14;1701727;82;20169;-63
2023/06/18 00:10:03;;;;;;;6.33;5.62;;;;;;;13.83;76.10;99311.81;1673743;84;21821;-63
2023/06/18 00:12:29;;;;;;;6.62;6.03;;;;;;;13.81;76.09;99310.27;1666617;84;21037;-63
2023/06/18 00:14:56;;;;;;;6.93;5.97;;;;;;;13.75;76.12;99311.52;1687332;84;21073;-63
2023/06/18 00:17:22;;;;;;;8.83;6.10;;;;;;;13.73;76.19;99316.49;1708608;83;21560;-63
2023/06/18 00:19:49;;;;;;;6.67;6.00;;;;;;;13.69;76.27;99320.25;1708011;83;21530;-63
2023/06/18 00:22:15;;;;;;;6.83;5.97;;;;;;;13.62;76.32;99320.66;1707417;83;21054;-63
2023/06/18 00:24:42;;;;;;;6.55;5.78;;;;;;;13.60;76.53;99327.78;1709029;83;20960;-63
2023/06/18 00:27:09;;;;;;;6.62;6.03;;;;;;;13.62;76.78;99323.28;1706483;83;21058;-63
2023/06/18 00:29:35;;;;;;;;;;;;;;;13.66;76.98;99323.44;1715455;83;21028;-63
2023/06/18 00:32:02;;;;;;;9.10;5.85;;;;;;;13.74;77.50;99324.72;1708283;83;20503;-64
2023/06/18 00:34:32;;;;;;;9.77;6.30;;;;;;;13.79;77.29;99329.20;1708939;83;21038;-63
2023/06/18 00:36:57;;;;;;;5.95;5.35;;;;;;;13.82;77.35;99325.05;1711911;83;20944;-64
2023/06/18 00:39:23;;;;;;;5.35;4.80;;;;;;;13.87;77.51;99326.91;1709679;83;20916;-64
2023/06/18 00:41:50;;;;;;;5.08;4.58;;;;;;;13.90;77.74;99325.38;1711549;83;21008;-63
2023/06/18 00:44:20;;;;;;;4.87;4.47;;;;;;;13.92;77.74;99319.56;1704725;83;20943;-64
2023/06/18 00:46:47;;;;;;;4.67;4.28;;;;;;;13.94;77.77;99319.45;1704825;83;21002;-63
2023/06/18 00:49:18;;;;;;;4.12;3.62;;;;;;;13.93;77.70;99327.80;1709319;83;20966;-61
2023/06/18 00:51:46;;;;;;;4.22;3.55;;;;;;;13.92;77.84;99323.50;1710478;83;21047;-61
2023/06/18 00:54:15;;;;;;;5.40;3.77;;;;;;;13.90;77.95;99332.42;1712292;83;20988;-61
2023/06/18 00:57:03;;;;;;;3.75;3.42;;;;;;;13.89;77.87;99331.55;1707687;83;21054;-61
2023/06/18 00:59:21;;;;;;;4.92;3.77;;;;;;;13.90;78.05;99331.11;1697540;83;21105;-61
2023/06/18 01:01:43;;;;;;;4.10;3.58;;;;;;;13.93;78.26;99333.05;1705326;83;20996;-61
2023/06/18 01:04:11;;;;;;;4.53;4.10;;;;;;;13.98;78.34;99330.95;1707477;83;21042;-61
2023/06/18 01:06:37;;;;;;;5.22;4.25;;;;;;;14.01;78.36;99330.75;1711696;83;21553;-61
2023/06/18 01:09:04;;;;;;;5.87;4.70;;;;;;;14.08;78.56;99335.09;1708540;83;21528;-61
2023/06/18 01:11:37;;;;;;;5.60;4.28;;;;;;;14.13;78.75;99324.30;1713515;83;20955;-61
2023/06/18 01:13:58;;;;;;;4.62;4.03;;;;;;;14.17;78.73;99323.13;1705650;83;21495;-61
2023/06/18 01:16:24;;;;;;;4.25;3.85;;;;;;;14.20;78.76;99321.60;1704626;83;20987;-61
2023/06/18 01:18:54;;;;;;;5.40;4.20;;;;;;;14.23;78.90;99329.30;1710338;83;21016;-61
2023/06/18 01:21:24;;;;;;;4.47;3.70;;;;;;;14.27;78.91;99322.87;1708160;83;21054;-61
2023/06/18 01:23:54;;;;;;;4.15;3.72;;;;;;;14.28;78.92;99328.48;1709550;83;21606;-61
2023/06/18 01:26:23;;;;;;;5.42;4.75;;;;;;;14.31;78.93;99326.95;1710491;83;21012;-61
2023/06/18 01:28:51;;;;;;;5.30;3.90;;;;;;;14.35;79.25;99337.63;1707037;83;21075;-61
2023/06/18 01:31:23;;;;;;;4.47;3.92;;;;;;;14.37;79.14;99327.87;1706578;83;20950;-61
2023/06/18 01:33:53;;;;;;;4.10;3.70;;;;;;;14.35;78.99;99328.44;1706812;83;21481;-61
2023/06/18 01:36:34;;;;;;;3.87;3.50;;;;;;;14.31;79.04;99321.70;1709771;83;21578;-61
2023/06/18 01:39:04;;;;;;;3.83;3.42;;;;;;;14.25;79.00;99327.38;1708446;83;21043;-64
2023/06/18 01:41:33;;;;;;;4.62;3.83;;;;;;;14.15;79.00;99326.35;1703416;83;21109;-63
2023/06/18 01:44:03;;;;;;;4.22;3.83;;;;;;;14.08;79.07;99329.37;1709582;82;20988;-63
2023/06/18 01:46:29;;;;;;;6.05;3.70;;;;;;;14.02;79.15;99329.80;1707657;83;20968;-63
2023/06/18 01:49:04;;;;;;;4.75;3.90;;;;;;;13.96;79.21;99336.77;1706955;83;20999;-63
2023/06/18 01:51:32;;;;;;;4.35;3.90;;;;;;;13.92;79.49;99341.01;1710033;83;21019;-63
2023/06/18 01:54:02;;;;;;;6.00;4.00;;;;;;;13.92;79.74;99337.94;1708497;83;21442;-63
2023/06/18 01:56:32;;;;;;;4.15;3.65;;;;;;;13.96;79.85;99341.19;1709105;83;21119;-63
2023/06/18 01:58:58;;;;;;;4.28;3.87;;;;;;;13.98;79.82;99341.45;1704482;83;21031;-63
2023/06/18 02:01:26;;;;;;;5.78;4.22;;;;;;;14.02;80.05;99340.29;1710102;83;21015;-63
2023/06/18 02:03:53;;;;;;;4.37;3.92;;;;;;;14.05;80.51;99340.08;1712614;83;21062;-63
2023/06/18 02:06:20;;;;;;;4.47;4.08;;;;;;;14.14;80.47;99337.78;1713173;83;20977;-63
2023/06/18 02:08:46;;;;;;;4.10;3.80;;;;;;;14.20;80.31;99342.61;1712442;83;20971;-63
2023/06/18 02:11:12;;;;;;;4.25;3.83;;;;;;;14.21;80.21;99341.68;1710283;83;20957;-63
2023/06/18 02:13:38;;;;;;;4.72;3.92;;;;;;;14.23;80.26;99342.42;1713281;83;21597;-63
2023/06/18 02:16:04;;;;;;;4.80;3.58;;;;;;;14.24;80.36;99346.72;1711358;83;21010;-63
2023/06/18 02:18:31;;;;;;;4.05;3.60;;;;;;;14.23;80.31;99338.48;1712104;83;20972;-64
2023/06/18 02:20:59;;;;;;;5.42;4.08;;;;;;;14.23;80.45;99341.11;1710475;83;20931;-63
2023/06/18 02:23:25;;;;;;;4.42;4.00;;;;;;;14.22;80.42;99335.47;1708912;83;21601;-63
2023/06/18 02:25:52;;;;;;;5.42;4.30;;;;;;;14.22;80.47;99335.47;1709762;83;20965;-63
2023/06/18 02:28:18;;;;;;;4.83;4.15;;;;;;;14.23;80.45;99337.17;1709018;83;21007;-64
2023/06/18 02:30:44;;;;;;;6.12;4.30;;;;;;;14.22;80.33;99330.22;1708655;83;21103;-63
2023/06/18 02:33:11;;;;;;;4.53;4.00;;;;;;;14.22;80.50;99328.91;1710412;83;21552;-64
2023/06/18 02:35:37;;;;;;;5.00;4.30;;;;;;;14.19;80.42;99330.44;1711178;83;21035;-64
2023/06/18 02:38:04;;;;;;;5.58;4.25;;;;;;;14.16;80.39;99331.96;1706686;83;21031;-63
2023/06/18 02:40:31;;;;;;;4.20;3.80;;;;;;;14.09;80.40;99333.70;1708631;83;21050;-63
2023/06/18 02:42:58;;;;;;;4.78;3.85;;;;;;;14.04;80.37;99337.09;1708835;83;21006;-64
2023/06/18 02:45:26;;;;;;;4.30;3.90;;;;;;;13.98;80.42;99330.95;1708938;83;20983;-64
2023/06/18 02:47:52;;;;;;;5.00;4.50;;;;;;;13.93;80.59;99333.05;1707780;83;21007;-63
2023/06/18 02:50:20;;;;;;;4.45;3.87;;;;;;;13.90;80.67;99333.25;1714030;83;20940;-63
2023/06/18 02:52:49;;;;;;;;;;;;;;;13.88;80.90;99335.13;1708887;83;22093;-63
2023/06/18 02:55:17;;;;;;;5.05;4.42;;;;;;;13.90;81.34;99330.63;1710762;83;20626;-63
2023/06/18 02:57:43;;;;;;;6.17;4.40;;;;;;;13.99;81.44;99327.86;1700493;83;21092;-64
2023/06/18 03:00:12;;;;;;;4.70;4.30;;;;;;;14.08;81.59;99335.94;1631713;86;20979;-64
2023/06/18 03:02:41;;;;;;;5.10;4.28;;;;;;;14.19;81.66;99342.25;1675890;85;20978;-64
2023/06/18 03:05:08;;;;;;;4.37;3.98;;;;;;;14.26;81.60;99326.45;1631099;88;21494;-64
2023/06/18 03:07:35;;;;;;;5.42;4.28;;;;;;;14.34;81.50;99332.03;1677161;84;21047;-63
2023/06/18 03:10:03;;;;;;;4.62;3.87;;;;;;;14.37;81.38;99326.55;1674143;85;21074;-63
2023/06/18 03:12:30;;;;;;;4.87;4.47;;;;;;;14.36;81.20;99327.48;1675811;85;21048;-63
2023/06/18 03:14:56;;;;;;;3.97;3.57;;;;;;;14.34;81.33;99326.77;1674250;84;21047;-63
2023/06/18 03:17:22;;;;;;;4.70;4.00;;;;;;;14.32;81.19;99322.09;1646226;86;21128;-63
2023/06/18 03:19:49;;;;;;;3.98;3.58;;;;;;;14.30;81.32;99320.03;1662082;85;21040;-64
2023/06/18 03:22:15;;;;;;;6.62;3.58;;;;;;;14.27;81.29;99316.31;1660492;85;21533;-64
2023/06/18 03:24:41;;;;;;;6.28;4.50;;;;;;;14.27;81.29;99316.31;1662604;85;21030;-63
2023/06/18 03:27:08;;;;;;;4.97;4.47;;;;;;;14.26;81.53;99322.04;1662002;85;21054;-64
2023/06/18 03:29:37;;;;;;;4.78;4.28;;;;;;;14.28;81.75;99325.86;1664090;85;20967;-64
2023/06/18 03:32:06;;;;;;;5.40;4.17;;;;;;;14.34;81.89;99326.77;1664257;85;21225;-64
2023/06/18 03:34:33;;;;;;;4.87;4.22;;;;;;;14.43;82.21;99331.37;1663566;85;21050;-64
2023/06/18 03:37:00;;;;;;;5.22;4.72;;;;;;;14.53;82.26;99336.38;1662671;85;21038;-64
2023/06/18 03:39:27;;;;;;;4.62;3.90;;;;;;;14.62;82.19;99334.05;1664000;85;21553;-63
2023/06/18 03:41:53;;;;;;;4.53;3.67;;;;;;;14.73;82.18;99336.31;1664624;85;21046;-64
2023/06/18 03:44:19;;;;;;;4.80;4.35;;;;;;;14.84;82.23;99340.78;1664656;85;21150;-63
2023/06/18 03:46:46;;;;;;;4.27;3.60;;;;;;;14.93;82.16;99340.16;1664052;84;20971;-64
2023/06/18 03:49:12;;;;;;;4.33;3.58;;;;;;;15.00;82.07;99344.48;1664225;85;20970;-63
2023/06/18 03:51:38;;;;;;;4.40;3.60;;;;;;;15.06;81.99;99341.89;1664254;85;21443;-64
2023/06/18 03:54:05;;;;;;;3.80;3.37;;;;;;;15.16;82.09;99349.50;1664737;85;21006;-63
2023/06/18 03:56:31;;;;;;;7.00;3.58;;;;;;;15.26;82.06;99361.49;1663512;85;21046;-64
2023/06/18 03:58:58;;;;;;;4.27;3.40;;;;;;;15.36;82.09;99360.72;1677323;84;20972;-63
2023/06/18 04:01:26;;;;;;;4.33;3.33;;;;;;;15.47;82.02;99353.84;1689127;83;21796;-63
2023/06/18 04:03:57;;;;;;;3.67;3.20;;;;;;;15.62;82.07;99360.59;1694121;83;20996;-64
2023/06/18 04:06:22;;;;;;;4.12;3.22;;;;;;;15.75;81.96;99367.98;1680152;83;21024;-64
2023/06/18 04:08:49;;;;;;;3.85;3.12;;;;;;;15.85;81.82;99367.67;1667316;85;20973;-63
2023/06/18 04:11:15;;;;;;;3.67;3.17;;;;;;;15.95;81.75;99361.71;1654273;85;21074;-63
2023/06/18 04:13:42;;;;;;;3.10;2.80;;;;;;;16.06;81.72;99357.79;1665063;85;21017;-63
2023/06/18 04:16:10;;;;;;;4.00;3.27;;;;;;;16.14;81.65;99367.27;1684373;83;20963;-63
2023/06/18 04:18:36;;;;;;;3.33;2.95;;;;;;;16.25;81.59;99364.66;1684771;84;20991;-64
2023/06/18 04:21:05;;;;;;;3.08;2.80;;;;;;;16.34;81.51;99366.57;1682773;84;20943;-64
2023/06/18 04:23:32;;;;;;;3.75;3.02;;;;;;;16.42;81.20;99365.16;1663646;84;20969;-64
2023/06/18 04:25:58;;;;;;;3.02;2.72;;;;;;;16.51;81.19;99369.70;1684476;85;21099;-63
2023/06/18 04:28:25;;;;;;;4.20;3.00;;;;;;;16.58;81.07;99376.20;1683909;84;20982;-64
2023/06/18 04:30:51;;;;;;;3.40;3.10;;;;;;;16.59;80.73;99368.64;1647175;85;21012;-63
2023/06/18 04:33:17;;;;;;;3.10;2.80;;;;;;;16.66;81.02;99362.39;1648626;85;20965;-64
2023/06/18 04:35:45;;;;;;;3.00;2.70;;;;;;;16.72;80.11;99361.45;1646062;85;20984;-64
2023/06/18 04:38:11;;;;;;;4.25;3.15;;;;;;;16.72;80.11;99361.45;1691146;84;21518;-64
2023/06/18 04:40:38;;;;;;;3.25;2.95;;;;;;;16.81;80.41;99360.41;1690304;84;20985;-64
2023/06/18 04:43:04;;;;;;;3.00;2.70;;;;;;;16.90;80.41;99362.31;1691221;84;21000;-64
2023/06/18 04:45:31;;;;;;;3.47;2.90;;;;;;;16.96;80.32;99361.82;1693231;83;20997;-64
2023/06/18 04:47:57;;;;;;;3.15;2.85;;;;;;;17.08;80.17;99365.27;1693172;84;21595;-64
2023/06/18 04:50:24;;;;;;;3.30;3.00;;;;;;;17.15;79.88;99364.66;1690994;83;20949;-63
2023/06/18 04:52:50;;;;;;;2.85;2.55;;;;;;;17.20;79.85;99364.30;1695253;83;21015;-64
2023/06/18 04:55:17;;;;;;;5.83;3.40;;;;;;;17.31;79.88;99372.66;1692746;84;21020;-64
2023/06/18 04:57:44;;;;;;;3.67;2.77;;;;;;;17.38;79.38;99376.48;1688076;83;20988;-63
2023/06/18 05:00:11;;;;;;;3.50;3.00;;;;;;;17.30;79.20;99381.55;1681319;83;22045;-63
2023/06/18 05:02:39;;;;;;;3.58;3.08;;;;;;;17.33;79.15;99382.61;1678540;83;21085;-64
2023/06/18 05:05:07;;;;;;;5.33;2.87;;;;;;;17.30;78.70;99381.55;1674776;83;21116;-64
2023/06/18 05:07:33;;;;;;;3.60;3.30;;;;;;;17.23;78.49;99393.91;1677221;83;21045;-65
2023/06/18 05:09:59;;;;;;;4.62;3.12;;;;;;;17.17;78.51;99390.94;1680661;83;21500;-65
2023/06/18 05:12:26;;;;;;;3.27;2.80;;;;;;;17.19;78.86;99385.87;1678491;83;21112;-65
2023/06/18 05:14:52;;;;;;;4.12;2.90;;;;;;;17.38;79.42;99389.19;1681271;83;21077;-65
2023/06/18 05:17:18;;;;;;;3.87;2.98;;;;;;;17.75;79.74;99390.64;1680131;83;20998;-65
2023/06/18 05:19:48;;;;;;;5.70;2.70;;;;;;;18.08;79.28;99387.03;1674759;83;21040;-65
2023/06/18 05:22:13;;;;;;;3.37;3.08;;;;;;;18.38;78.40;99386.26;1682751;83;21544;-65
2023/06/18 05:24:41;;;;;;;4.08;3.67;;;;;;;18.53;77.69;99387.58;1678319;83;21045;-65
2023/06/18 05:27:08;;;;;;;3.47;3.17;;;;;;;18.65;77.70;99396.29;1681046;83;21096;-65
2023/06/18 05:29:35;;;;;;;4.50;3.02;;;;;;;18.64;77.01;99405.17;1672403;84;21079;-65
2023/06/18 05:32:01;;;;;;;3.53;3.00;;;;;;;18.61;76.92;99409.89;1669205;84;21008;-65
2023/06/18 05:34:27;;;;;;;3.30;3.00;;;;;;;18.64;76.57;99406.49;1673420;83;21271;-65
2023/06/18 05:36:53;;;;;;;4.10;3.30;;;;;;;18.65;76.55;99412.62;1677386;83;21275;-65
2023/06/18 05:42:46;;;;;;;4.17;3.40;;;;;;;18.77;76.20;99412.94;1718124;82;21016;-65
2023/06/18 05:45:12;;;;;;;4.47;3.72;;;;;;;18.82;75.70;99421.31;1724938;82;21551;-65
2023/06/18 05:47:39;;;;;;;3.55;3.22;;;;;;;18.80;75.55;99417.95;1724465;82;20921;-65
2023/06/18 05:50:07;;;;;;;3.53;3.23;;;;;;;18.86;75.35;99425.36;1721986;81;21110;-64
2023/06/18 05:52:33;;;;;;;4.62;3.35;;;;;;;18.89;75.39;99421.13;1723948;82;21065;-65
2023/06/18 05:55:00;;;;;;;3.70;3.33;;;;;;;19.11;75.51;99420.09;1723700;82;21122;-65
2023/06/18 05:57:27;;;;;;;3.55;3.25;;;;;;;19.34;75.14;99426.00;1722849;82;21056;-66
2023/06/18 05:59:54;;;;;;;3.80;3.33;;;;;;;19.43;74.55;99423.02;1721234;82;21083;-66
2023/06/18 06:02:20;;;;;;;3.83;3.42;;;;;;;19.36;74.12;99422.73;1721962;81;21010;-68
2023/06/18 06:04:47;;;;;;;4.55;3.65;;;;;;;19.51;74.27;99425.00;1718673;82;21005;-71
2023/06/18 06:07:16;;;;;;;3.87;3.47;;;;;;;19.65;74.28;99429.89;1713004;82;21083;-67
2023/06/18 06:09:44;;;;;;;4.25;3.60;;;;;;;19.82;73.89;99432.38;1710881;83;21077;-66
2023/06/18 06:12:13;;;;;;;4.42;3.60;;;;;;;19.96;73.43;99437.75;1713545;82;21090;-66
2023/06/18 06:14:40;;;;;;;4.92;3.72;;;;;;;20.00;72.90;99442.65;1711084;83;21091;-64
2023/06/18 06:17:13;;;;;;;6.47;3.87;;;;;;;19.98;72.52;99439.78;1711217;82;21047;-65
2023/06/18 06:19:41;;;;;;;5.37;3.52;;;;;;;19.95;72.48;99438.74;1689447;83;21083;-65
2023/06/18 06:22:07;;;;;;;6.03;3.47;;;;;;;19.85;72.17;99441.38;1710840;83;20993;-66
2023/06/18 06:24:33;;;;;;;3.53;3.23;;;;;;;19.93;72.27;99422.14;1708150;83;21059;-65
2023/06/18 06:27:06;;;;;;;4.12;3.72;;;;;;;19.93;72.27;99422.14;1713954;83;21051;-66
2023/06/18 06:29:32;;;;;;;3.87;3.47;;;;;;;20.14;72.00;99440.06;1684148;83;21013;-65
2023/06/18 06:31:58;;;;;;;4.03;3.60;;;;;;;20.24;71.43;99442.20;1711509;82;20989;-66
2023/06/18 06:34:24;;;;;;;5.53;3.67;;;;;;;20.31;70.97;99445.14;1708214;82;21103;-66
2023/06/18 06:36:51;;;;;;;3.80;3.50;;;;;;;20.46;71.54;99450.83;1711651;82;21032;-65
2023/06/18 06:39:18;;;;;;;4.33;3.50;;;;;;;20.76;71.66;99439.20;1707937;83;21097;-65
2023/06/18 06:41:47;;;;;;;4.67;3.80;;;;;;;20.91;70.57;99443.55;1695246;82;22348;-66
2023/06/18 06:44:18;;;;;;;7.22;3.87;;;;;;;20.99;70.36;99445.81;1711412;82;21653;-64
2023/06/18 06:46:47;;;;;;;4.40;3.55;;;;;;;21.32;70.84;99434.78;1713391;83;21084;-65
2023/06/18 06:49:16;;;;;;;3.60;3.27;;;;;;;21.66;70.25;99445.14;1714297;83;21008;-62
2023/06/18 06:51:45;;;;;;;3.83;3.52;;;;;;;21.80;69.68;99445.61;1710441;83;21226;-62
2023/06/18 06:54:11;;;;;;;5.47;3.67;;;;;;;21.93;69.16;99450.07;1710820;83;21039;-63
2023/06/18 06:56:39;;;;;;;5.13;3.33;;;;;;;21.89;68.53;99446.86;1711150;82;20953;-63
2023/06/18 06:59:06;;;;;;;7.40;3.87;;;;;;;21.87;67.61;99446.66;1711459;82;21052;-62
2023/06/18 07:01:32;;;;;;;6.03;3.87;;;;;;;21.76;68.00;99446.42;1713258;82;21503;-63
2023/06/18 07:04:03;;;;;;;4.50;3.75;;;;;;;21.64;67.70;99443.13;1710677;82;21072;-63
2023/06/18 07:06:30;;;;;;;3.80;3.30;;;;;;;21.63;67.51;99446.77;1709055;82;21182;-64
2023/06/18 07:08:59;;;;;;;4.12;3.72;;;;;;;21.70;67.60;99454.14;1710752;83;20984;-63
2023/06/18 07:11:33;;;;;;;4.00;3.50;;;;;;;21.82;67.22;99454.28;1713112;82;21513;-63
2023/06/18 07:14:00;;;;;;;4.37;3.33;;;;;;;21.94;67.13;99447.73;1710107;82;20942;-64
2023/06/18 07:16:32;;;;;;;4.97;3.58;;;;;;;21.92;65.98;99452.86;1712094;82;21032;-62
2023/06/18 07:19:01;;;;;;;5.78;3.85;;;;;;;21.98;66.88;99453.08;1692208;83;21032;-62
2023/06/18 07:21:28;;;;;;;4.22;3.83;;;;;;;22.29;66.73;99458.03;1712937;82;21171;-61
2023/06/18 07:23:59;;;;;;;5.08;3.45;;;;;;;22.56;66.85;99451.75;1692698;83;21043;-61
2023/06/18 07:26:25;;;;;;;5.28;3.72;;;;;;;23.18;66.52;99446.30;1714489;82;21002;-61
2023/06/18 07:28:52;;;;;;;4.53;3.73;;;;;;;23.52;64.48;99450.74;1710165;82;21472;-63
2023/06/18 07:31:19;;;;;;;4.90;4.10;;;;;;;23.78;65.71;99454.19;1712885;82;21519;-65
2023/06/18 07:33:47;;;;;;;7.28;4.20;;;;;;;24.17;65.18;99456.23;1710806;82;21028;-63
2023/06/18 07:36:13;;;;;;;4.45;3.47;;;;;;;24.41;64.03;99464.70;1703019;82;21120;-65
2023/06/18 07:38:40;;;;;;;4.37;3.80;;;;;;;24.22;62.64;99468.54;1711625;82;21048;-65
2023/06/18 07:41:27;;;;;;;5.22;3.60;;;;;;;23.94;63.12;99469.86;1691039;83;21594;-65
2023/06/18 07:43:40;;;;;;;5.17;4.37;;;;;;;23.80;63.47;99473.49;1702445;82;21103;-65
2023/06/18 07:46:07;;;;;;;4.97;3.98;;;;;;;24.03;63.22;99476.86;1709519;83;21018;-64
2023/06/18 07:48:34;;;;;;;4.97;3.87;;;;;;;24.15;62.56;99475.56;1706950;83;21049;-64
2023/06/18 07:51:00;;;;;;;4.15;3.60;;;;;;;24.05;61.99;99474.87;1714130;82;21107;-64
2023/06/18 07:53:27;;;;;;;3.67;3.37;;;;;;;23.96;61.75;99477.20;1708897;82;21036;-65
2023/06/18 07:55:54;;;;;;;6.30;3.70;;;;;;;24.18;61.92;99476.55;1711312;82;21051;-65
2023/06/18 07:58:20;;;;;;;3.90;3.50;;;;;;;24.92;63.55;99484.52;1708061;82;21065;-64
2023/06/18 08:00:49;;;;;;;3.45;3.15;;;;;;;26.96;64.85;99473.88;1686282;82;21130;-65
2023/06/18 08:03:16;;;;;;;3.85;3.40;;;;;;;28.75;61.86;99468.30;1655036;85;21098;-65
2023/06/18 08:05:45;;;;;;;;;;;;;;;29.58;59.23;99473.73;1700161;83;21063;-64
2023/06/18 08:08:13;;;;;;;4.05;3.40;;;;;;;29.45;56.92;99470.98;1687945;84;20226;-65
2023/06/18 08:10:42;;;;;;;4.00;3.27;;;;;;;29.45;56.68;99471.81;1671559;84;21017;-65
2023/06/18 08:13:08;;;;;;;4.35;3.85;;;;;;;29.02;57.56;99471.17;1691191;83;21527;-65
2023/06/18 08:15:34;;;;;;;4.47;3.40;;;;;;;29.15;56.55;99468.56;1683075;84;21574;-66
2023/06/18 08:18:01;;;;;;;4.10;3.45;;;;;;;29.40;57.50;99468.06;1694298;84;21626;-65
2023/06/18 08:20:28;;;;;;;4.22;3.45;;;;;;;29.89;56.33;99465.67;1697849;84;21068;-66
2023/06/18 08:22:55;;;;;;;6.58;3.52;;;;;;;30.00;54.76;99466.41;1695928;84;21016;-63
2023/06/18 08:25:22;;;;;;;5.20;3.42;;;;;;;30.17;54.65;99471.41;1702146;83;21067;-65
2023/06/18 08:27:50;;;;;;;4.97;3.35;;;;;;;30.23;53.46;99465.22;1695171;84;21011;-69
2023/06/18 08:30:19;;;;;;;4.50;3.10;;;;;;;29.84;53.06;99470.83;1704762;84;20969;-65
2023/06/18 08:32:46;;;;;;;4.92;3.12;;;;;;;30.05;55.00;99472.02;1699872;83;21089;-65
2023/06/18 08:35:12;;;;;;;3.40;3.08;;;;;;;31.81;54.92;99463.17;1696146;83;21426;-65
2023/06/18 08:37:38;;;;;;;4.37;3.15;;;;;;;33.82;52.93;99466.44;1692416;84;21072;-66
2023/06/18 08:40:07;;;;;;;3.33;3.00;;;;;;;35.84;52.84;99461.52;1703834;83;21087;-66
2023/06/18 08:42:34;;;;;;;13.38;3.52;;;;;;;37.06;49.51;99466.48;1686543;83;21011;-66
2023/06/18 08:45:00;;;;;;;4.70;3.02;;;;;;;36.73;48.36;99465.45;1692534;83;20984;-66
2023/06/18 08:47:29;;;;;;;3.08;2.77;;;;;;;36.57;47.71;99469.84;1690035;84;20968;-66
2023/06/18 08:49:58;;;;;;;8.48;3.35;;;;;;;35.80;47.27;99467.16;1691358;83;21040;-66
2023/06/18 08:52:30;;;;;;;4.85;3.40;;;;;;;36.12;47.27;99470.73;1692009;83;21036;-66
2023/06/18 08:55:01;;;;;;;3.90;3.20;;;;;;;37.29;46.21;99468.13;1684109;83;21006;-66
2023/06/18 08:57:35;;;;;;;3.58;3.05;;;;;;;36.62;43.20;99467.20;1682591;84;21081;-66
2023/06/18 09:00:03;;;;;;;3.40;3.10;;;;;;;35.32;42.81;99469.75;1685625;84;21548;-66
2023/06/18 09:02:31;;;;;;;4.53;3.40;;;;;;;34.25;42.27;99467.27;1686043;84;21514;-66
2023/06/18 09:05:00;;;;;;;3.47;3.17;;;;;;;33.30;41.79;99469.29;1689305;83;20991;-66
2023/06/18 09:07:26;;;;;;;3.75;3.17;;;;;;;33.61;42.57;99470.49;1681498;83;21062;-66
2023/06/18 09:09:57;;;;;;;7.33;3.47;;;;;;;33.73;40.57;99472.42;1682418;84;21011;-66
2023/06/18 09:12:24;;;;;;;3.52;3.22;;;;;;;32.88;39.90;99475.86;1680382;83;21008;-66
2023/06/18 09:14:53;;;;;;;4.17;3.00;;;;;;;32.25;39.95;99478.19;1692259;83;21470;-66
2023/06/18 09:17:24;;;;;;;4.65;3.65;;;;;;;31.76;39.06;99479.21;1685071;83;21075;-66
2023/06/18 09:19:53;;;;;;;5.08;3.20;;;;;;;30.92;38.92;99483.66;1680102;83;21083;-66
2023/06/18 09:22:22;;;;;;;3.70;3.10;;;;;;;31.60;40.44;99477.01;1663608;84;21032;-66
2023/06/18 09:24:58;;;;;;;4.25;3.20;;;;;;;33.39;40.43;99478.77;1686665;83;21075;-66
2023/06/18 09:27:32;;;;;;;3.42;3.08;;;;;;;35.79;40.05;99475.00;1680987;83;21729;-66
2023/06/18 09:29:59;;;;;;;3.87;3.02;;;;;;;36.56;37.90;99475.55;1684321;83;21671;-66
2023/06/18 09:32:25;;;;;;;;;;;;;;;36.71;37.84;99471.67;1687776;83;21090;-66
2023/06/18 09:34:51;;;;;;;3.22;2.80;;;;;;;37.08;35.96;99476.02;1686599;84;20222;-66
2023/06/18 09:37:19;;;;;;;3.10;2.80;;;;;;;36.24;35.92;99476.08;1686560;83;21011;-66
2023/06/18 09:39:46;;;;;;;3.05;2.75;;;;;;;36.48;37.41;99472.67;1684704;84;21007;-66
2023/06/18 09:42:16;;;;;;;4.22;2.60;;;;;;;37.49;36.33;99476.55;1686074;83;21015;-66
2023/06/18 09:44:47;;;;;;;4.33;2.80;;;;;;;38.12;35.41;99472.01;1691595;83;21059;-66
2023/06/18 09:47:15;;;;;;;5.40;2.95;;;;;;;38.48;35.92;99463.08;1680368;84;21566;-66
2023/06/18 09:49:45;;;;;;;3.72;2.70;;;;;;;39.37;35.68;99466.84;1677657;83;20945;-66
2023/06/18 09:52:10;;;;;;;3.55;2.77;;;;;;;40.48;34.78;99467.83;1658753;85;21071;-66
2023/06/18 09:54:42;;;;;;;3.42;2.55;;;;;;;41.86;33.87;99463.19;1654351;85;21422;-66
2023/06/18 09:57:12;;;;;;;5.92;2.50;;;;;;;42.13;32.67;99461.92;1659672;85;21510;-66
2023/06/18 09:59:39;;;;;;;2.98;2.65;;;;;;;42.63;33.07;99470.24;1654360;85;21067;-66
2023/06/18 10:02:14;;;;;;;2.60;2.05;;;;;;;43.76;32.22;99455.94;1708418;83;20988;-66
2023/06/18 10:04:41;;;;;;;4.12;2.37;;;;;;;44.90;30.73;99466.66;1707531;82;21022;-67
2023/06/18 10:07:15;;;;;;;12.05;2.87;;;;;;;45.43;30.19;99456.99;1709567;82;21067;-67
2023/06/18 10:09:42;;;;;;;3.12;2.42;;;;;;;45.89;28.45;99455.38;1707569;83;21015;-67
2023/06/18 10:12:11;;;;;;;3.75;2.50;;;;;;;43.93;26.95;99457.33;1709018;82;21033;-66
2023/06/18 10:14:40;;;;;;;3.58;2.62;;;;;;;42.14;26.82;99456.69;1689432;82;21041;-65
2023/06/18 10:17:13;;;;;;;3.58;2.90;;;;;;;41.59;27.36;99459.00;1647778;83;2106041;-65
2023/06/18 10:19:57;;;;;;;3.67;2.30;;;;;;;42.13;26.82;99458.63;1703811;82;21013;-66
2023/06/18 10:22:27;;;;;;;3.33;2.47;;;;;;;43.30;26.76;99452.47;1704331;82;21010;-64
2023/06/18 10:24:57;;;;;;;2.75;2.35;;;;;;;44.06;25.21;99462.09;1672308;84;21117;-67
2023/06/18 10:27:25;;;;;;;2.70;2.50;;;;;;;42.88;24.35;99452.70;1674212;84;21045;-66
2023/06/18 10:29:58;;;;;;;3.47;2.50;;;;;;;42.17;24.20;99458.86;1675169;84;21191;-68
2023/06/18 10:32:28;;;;;;;2.77;2.58;;;;;;;40.85;24.23;99452.98;1705000;82;21115;-70
2023/06/18 10:34:59;;;;;;;4.90;2.77;;;;;;;39.62;24.00;99458.44;1688940;83;21076;-67
2023/06/18 10:37:34;;;;;;;4.00;2.75;;;;;;;38.63;24.18;99460.17;1708145;82;21038;-66
2023/06/18 10:40:05;;;;;;;3.83;3.10;;;;;;;37.34;24.06;99464.11;1671768;84;21084;-68
2023/06/18 10:42:33;;;;;;;3.27;2.83;;;;;;;36.37;24.52;99458.63;1704492;82;21038;-67
2023/06/18 10:45:12;;;;;;;4.00;2.65;;;;;;;35.88;24.32;99456.95;1673758;84;21049;-68
2023/06/18 10:47:41;;;;;;;3.70;3.12;;;;;;;34.96;24.45;99457.30;1702401;81;21594;-65
2023/06/18 10:50:12;;;;;;;3.95;3.00;;;;;;;34.77;24.89;99448.47;1677028;83;21782;-67
2023/06/18 10:52:41;;;;;;;4.08;3.22;;;;;;;34.22;24.64;99454.19;1678214;83;20981;-65
2023/06/18 10:55:16;;;;;;;4.03;2.70;;;;;;;34.61;25.56;99450.54;1674404;83;21104;-65
2023/06/18 10:57:54;;;;;;;3.47;3.05;;;;;;;34.45;24.98;99451.52;1686625;84;21532;-67
2023/06/18 11:00:30;;;;;;;4.10;3.22;;;;;;;33.73;25.30;99450.77;1685714;83;21102;-66
2023/06/18 11:02:59;;;;;;;3.62;3.12;;;;;;;32.78;25.52;99455.30;1687544;83;21060;-66
2023/06/18 11:05:49;;;;;;;3.37;3.08;;;;;;;31.63;25.90;99457.69;1685558;83;21020;-66
2023/06/18 11:08:17;;;;;;;3.77;2.90;;;;;;;30.71;26.08;99456.91;1699678;82;21045;-71
2023/06/18 11:10:49;;;;;;;3.52;2.62;;;;;;;29.92;26.70;99453.14;1662433;82;120110;-66
2023/06/18 11:13:17;;;;;;;3.52;2.90;;;;;;;29.50;27.07;99463.14;1638783;86;21021;-67
2023/06/18 11:16:30;;;;;;;4.67;3.50;;;;;;;29.39;27.90;99455.66;1573768;76;5224624;-61
2023/06/18 11:19:03;;;;;;;;;;;;;;;29.48;27.48;99446.89;1725518;82;21518;-61
2023/06/18 11:21:25;;;;;;;3.20;2.90;;;;;;;29.43;28.20;99448.83;1721975;82;20198;-62
2023/06/18 11:23:58;;;;;;;3.30;3.00;;;;;;;30.02;28.46;99447.34;1721164;82;21137;-62
2023/06/18 11:26:28;;;;;;;3.45;2.90;;;;;;;30.30;28.49;99447.19;1723114;83;21171;-62
2023/06/18 11:28:55;;;;;;;2.98;2.72;;;;;;;30.37;28.47;99438.60;1721699;82;21057;-63
2023/06/18 11:31:25;;;;;;;4.58;3.22;;;;;;;30.19;28.74;99441.05;1720186;82;21056;-61
2023/06/18 11:33:51;;;;;;;5.55;3.25;;;;;;;30.30;28.86;99441.30;1722069;82;21157;-64
2023/06/18 11:36:20;;;;;;;4.70;3.45;;;;;;;30.17;29.08;99434.53;1723759;82;22213;-64
2023/06/18 11:38:47;;;;;;;5.05;3.02;;;;;;;30.01;29.27;99435.75;1723270;82;21149;-64
2023/06/18 11:41:36;;;;;;;;;;;;;;;;;;;;;
2023/06/18 11:43:53;;;;;;;3.22;2.92;;;;;;;30.11;29.74;99442.92;1705482;82;21518;-61